Terminal Aerodrome Forecast
Issued by NWS

Home | Current Version | Previous Version | Text Only | Print | Product List | Glossary On
Versions: 1 2 3 4 5 6 7 8 9 10 11 12 13 14 15 16 17 18 19 20 21 22 23 24 25 26 27 28 29 30
000
FTUS43 KLOT 250300 AAA
TAFGYY
TAF AMD
KGYY 250300Z 2503/2524 13012KT P6SM -SHRA SCT040 OVC070
     FM250700 12007KT 6SM -SHRA SCT015 OVC035
      TEMPO 2507/2509 5SM -RA SCT009 OVC015
     FM251000 34010KT P6SM BKN020
     FM251300 33012G17KT P6SM FEW040
     FM251600 30015G23KT P6SM FEW250=

USA.gov is the U.S. government's official web portal to all federal, state and local government web resources and services.